createdAt,value
2022-11-07T00:03:48.815Z,5.62
2022-11-07T00:07:50.385Z,5.63
2022-11-07T00:11:51.871Z,5.74
2022-11-07T00:15:54.451Z,5.82
2022-11-07T00:19:55.826Z,5.82
2022-11-07T00:23:57.209Z,5.88
2022-11-07T00:27:58.563Z,5.91
2022-11-07T00:31:59.999Z,5.82
2022-11-07T00:36:01.647Z,5.80
2022-11-07T00:40:03.235Z,5.87
2022-11-07T00:44:05.081Z,5.73
2022-11-07T00:48:06.559Z,5.74
2022-11-07T00:52:07.902Z,5.85
2022-11-07T00:56:12.431Z,5.90
2022-11-07T01:00:14.745Z,5.87
2022-11-07T01:04:34.822Z,5.89
2022-11-07T01:08:36.838Z,5.78
2022-11-07T01:12:38.223Z,5.89
2022-11-07T01:16:41.621Z,5.92
2022-11-07T01:20:43.152Z,6.02
2022-11-07T01:24:44.703Z,6.03
2022-11-07T01:28:46.063Z,6.03
2022-11-07T01:32:47.456Z,6.07
2022-11-07T01:36:48.836Z,6.15
2022-11-07T01:41:08.826Z,6.08
2022-11-07T01:45:18.744Z,5.98
2022-11-07T01:49:21.357Z,5.84
2022-11-07T01:53:22.774Z,5.79
2022-11-07T01:57:27.471Z,5.79
2022-11-07T02:01:28.977Z,5.84
2022-11-07T02:06:01.601Z,5.89
2022-11-07T02:10:03.492Z,5.86
2022-11-07T02:14:06.126Z,5.92
2022-11-07T02:18:07.672Z,6.00
2022-11-07T02:22:27.438Z,6.07
2022-11-07T02:26:29.309Z,6.07
2022-11-07T02:30:34.480Z,6.08
2022-11-07T02:34:36.327Z,6.02
2022-11-07T02:38:37.840Z,6.14
2022-11-07T02:42:45.251Z,6.19
2022-11-07T02:46:46.653Z,6.22
2022-11-07T02:50:48.009Z,6.16
2022-11-07T02:54:49.340Z,6.18
2022-11-07T02:58:52.469Z,6.28
2022-11-07T03:02:54.090Z,6.41
2022-11-07T03:06:55.518Z,6.36
2022-11-07T03:10:56.957Z,6.40
2022-11-07T03:14:58.448Z,6.49
2022-11-07T03:18:59.833Z,6.63
2022-11-07T03:23:01.276Z,6.74
2022-11-07T03:27:02.702Z,6.77
2022-11-07T03:31:04.761Z,6.72
2022-11-07T03:35:06.971Z,6.82
2022-11-07T03:39:08.423Z,6.86
2022-11-07T03:43:09.781Z,6.83
2022-11-07T03:47:11.170Z,6.85
2022-11-07T03:51:12.530Z,6.87
2022-11-07T03:55:18.213Z,6.94
2022-11-07T03:59:19.811Z,6.94
2022-11-07T04:03:21.205Z,6.95
2022-11-07T04:07:22.841Z,7.05
2022-11-07T04:11:42.782Z,6.97
2022-11-07T04:16:04.469Z,6.90
2022-11-07T04:20:06.549Z,6.98
2022-11-07T04:24:07.971Z,7.00
2022-11-07T04:28:09.330Z,6.90
2022-11-07T04:32:10.743Z,6.98
2022-11-07T04:36:12.188Z,6.89
2022-11-07T04:40:14.066Z,6.93
2022-11-07T04:44:15.502Z,6.97
2022-11-07T04:48:17.674Z,7.02
2022-11-07T04:52:19.112Z,7.03
2022-11-07T04:56:20.551Z,7.03
2022-11-07T05:00:22.252Z,7.07
2022-11-07T05:04:23.725Z,7.06
2022-11-07T05:08:25.137Z,7.05
2022-11-07T05:12:26.606Z,7.17
2022-11-07T05:16:31.071Z,7.19
2022-11-07T05:20:37.838Z,7.14
2022-11-07T05:24:39.530Z,7.22
2022-11-07T05:28:41.008Z,7.13
2022-11-07T05:32:42.436Z,7.12
2022-11-07T05:36:44.280Z,7.07
2022-11-07T05:40:45.720Z,7.21
2022-11-07T05:44:47.111Z,7.13
2022-11-07T05:48:48.611Z,7.13
2022-11-07T05:52:50.011Z,7.11
2022-11-07T05:56:55.476Z,7.08
2022-11-07T06:01:01.687Z,7.09
2022-11-07T06:05:03.192Z,7.02
2022-11-07T06:09:04.626Z,7.04
2022-11-07T06:13:07.984Z,7.04
2022-11-07T06:17:09.515Z,6.99
2022-11-07T06:21:10.944Z,7.05
2022-11-07T06:25:12.348Z,7.05
2022-11-07T06:29:13.706Z,7.00
2022-11-07T06:33:18.189Z,7.06
2022-11-07T06:37:20.053Z,7.11
2022-11-07T06:41:21.504Z,7.09
2022-11-07T06:45:22.883Z,7.17
2022-11-07T06:49:24.480Z,7.18
2022-11-07T06:53:26.551Z,7.25
2022-11-07T06:57:27.925Z,7.28
2022-11-07T07:01:29.418Z,7.18
2022-11-07T07:05:34.115Z,7.28
2022-11-07T07:09:35.650Z,7.40
2022-11-07T07:13:37.587Z,7.46
2022-11-07T07:17:38.967Z,7.45
2022-11-07T07:21:40.356Z,7.50
2022-11-07T07:25:41.753Z,7.67
2022-11-07T07:29:43.163Z,7.82
2022-11-07T07:33:46.569Z,7.86
2022-11-07T07:37:52.097Z,7.84
2022-11-07T07:41:53.494Z,7.83
2022-11-07T07:45:58.553Z,7.94
2022-11-07T07:49:59.946Z,7.95
2022-11-07T07:54:01.501Z,7.89
2022-11-07T07:58:02.869Z,7.89
2022-11-07T08:02:04.361Z,8.02
2022-11-07T08:06:06.073Z,8.22
2022-11-07T08:10:34.892Z,8.45
2022-11-07T08:14:29.554Z,8.67
2022-11-07T08:18:31.321Z,8.83
2022-11-07T08:22:32.871Z,8.91
2022-11-07T08:26:37.407Z,9.13
2022-11-07T08:30:38.787Z,9.20
2022-11-07T08:34:40.305Z,9.29
2022-11-07T08:38:41.731Z,9.36
2022-11-07T08:42:43.125Z,9.36
2022-11-07T08:46:44.527Z,9.48
2022-11-07T08:50:46.299Z,9.42
2022-11-07T08:54:47.747Z,9.46
2022-11-07T08:58:49.295Z,9.43
2022-11-07T09:03:24.274Z,9.44
2022-11-07T09:07:12.125Z,9.46
2022-11-07T09:11:15.765Z,9.72
2022-11-07T09:15:18.981Z,9.97
2022-11-07T09:19:20.379Z,10.22
2022-11-07T09:23:21.764Z,10.23
2022-11-07T09:27:23.183Z,10.26
2022-11-07T09:31:24.580Z,10.46
2022-11-07T09:35:26.054Z,10.72
2022-11-07T09:39:27.423Z,11.15
2022-11-07T09:43:56.837Z,10.88
2022-11-07T09:48:03.750Z,11.12
2022-11-07T09:52:31.584Z,11.38
2022-11-07T09:56:33.997Z,11.36
2022-11-07T10:00:35.573Z,11.54
2022-11-07T10:04:37.039Z,11.78
2022-11-07T10:08:50.973Z,11.91
2022-11-07T10:13:31.288Z,12.05
2022-11-07T10:17:59.309Z,12.16
2022-11-07T10:22:36.613Z,12.46
2022-11-07T10:26:42.173Z,12.51
2022-11-07T10:30:48.139Z,12.85
2022-11-07T10:34:54.529Z,12.85
2022-11-07T10:38:56.769Z,12.96
2022-11-07T10:42:58.301Z,12.57
2022-11-07T10:47:00.785Z,12.32
2022-11-07T10:51:02.287Z,12.61
2022-11-07T10:55:23.079Z,12.63
2022-11-07T10:59:35.587Z,12.57
2022-11-07T11:03:45.188Z,13.01
2022-11-07T11:07:46.948Z,12.82
2022-11-07T11:11:51.761Z,12.76
2022-11-07T11:15:53.166Z,13.75
2022-11-07T11:19:54.854Z,14.16
2022-11-07T11:23:56.311Z,13.52
2022-11-07T11:28:06.835Z,13.85
2022-11-07T11:32:17.719Z,13.31
2022-11-07T11:36:23.157Z,13.35
2022-11-07T11:40:25.228Z,13.46
2022-11-07T11:44:32.640Z,14.02
2022-11-07T11:48:55.800Z,14.17
2022-11-07T11:52:59.472Z,14.37
2022-11-07T11:57:16.038Z,14.61
2022-11-07T12:01:35.375Z,13.95
2022-11-07T12:06:01.918Z,14.22
2022-11-07T12:10:10.367Z,13.87
2022-11-07T12:14:52.930Z,13.66
2022-11-07T12:19:03.593Z,13.98
2022-11-07T12:23:19.859Z,14.24
2022-11-07T12:27:27.098Z,14.10
2022-11-07T12:32:06.507Z,14.24
2022-11-07T12:36:26.524Z,14.00
2022-11-07T12:40:31.034Z,13.48
2022-11-07T12:44:40.401Z,13.49
2022-11-07T12:48:52.326Z,13.57
2022-11-07T12:53:11.200Z,13.22
2022-11-07T12:57:20.463Z,13.02
2022-11-07T13:01:31.002Z,12.92
2022-11-07T13:05:57.592Z,13.19
2022-11-07T13:10:14.193Z,12.79
2022-11-07T13:14:38.279Z,12.86
2022-11-07T13:18:43.079Z,12.50
2022-11-07T13:22:44.591Z,12.57
2022-11-07T13:26:47.693Z,12.66
2022-11-07T13:30:59.471Z,12.58
2022-11-07T13:35:08.609Z,12.59
2022-11-07T13:39:13.432Z,12.67
2022-11-07T13:43:33.477Z,13.06
2022-11-07T13:47:39.141Z,13.03
2022-11-07T13:51:52.470Z,12.74
2022-11-07T13:56:20.122Z,12.52
2022-11-07T14:00:22.050Z,12.49
2022-11-07T14:04:26.385Z,12.59
2022-11-07T14:08:37.741Z,12.47
2022-11-07T14:12:40.175Z,12.31
2022-11-07T14:16:45.541Z,12.46
2022-11-07T14:20:49.444Z,12.55
2022-11-07T14:24:54.979Z,12.40
2022-11-07T14:28:57.734Z,12.41
2022-11-07T14:33:01.414Z,12.52
2022-11-07T14:37:06.740Z,12.50
2022-11-07T14:41:12.598Z,12.52
2022-11-07T14:45:27.889Z,12.33
2022-11-07T14:49:41.958Z,12.46
2022-11-07T14:53:59.921Z,12.24
2022-11-07T14:58:03.192Z,12.31
2022-11-07T15:02:21.737Z,12.12
2022-11-07T15:06:29.019Z,12.13
2022-11-07T15:10:34.460Z,12.14
2022-11-07T15:14:37.595Z,12.14
2022-11-07T15:18:43.192Z,11.95
2022-11-07T15:22:44.667Z,11.98
2022-11-07T15:26:46.200Z,12.06
2022-11-07T15:30:48.946Z,12.00
2022-11-07T15:35:07.979Z,11.98
2022-11-07T15:39:15.553Z,12.03
2022-11-07T15:43:17.332Z,12.03
2022-11-07T15:47:20.953Z,11.95
2022-11-07T15:51:22.491Z,12.03
2022-11-07T15:55:23.986Z,12.02
2022-11-07T15:59:31.759Z,12.07
2022-11-07T16:03:33.131Z,11.89
2022-11-07T16:07:34.669Z,11.96
2022-11-07T16:11:36.139Z,11.99
2022-11-07T16:15:39.374Z,11.92
2022-11-07T16:19:40.808Z,11.84
2022-11-07T16:23:43.132Z,11.82
2022-11-07T16:27:49.765Z,11.84
2022-11-07T16:31:51.271Z,11.70
2022-11-07T16:35:55.651Z,11.61
2022-11-07T16:39:57.482Z,11.64
2022-11-07T16:43:59.620Z,11.45
2022-11-07T16:48:01.162Z,11.45
2022-11-07T16:52:03.950Z,11.28
2022-11-07T16:56:06.155Z,11.15
2022-11-07T17:00:21.326Z,11.22
2022-11-07T17:04:22.871Z,11.11
2022-11-07T17:08:39.269Z,11.19
2022-11-07T17:12:40.665Z,11.19
2022-11-07T17:16:48.799Z,11.07
2022-11-07T17:20:53.350Z,11.14
2022-11-07T17:24:54.729Z,11.12
2022-11-07T17:28:58.038Z,11.05
2022-11-07T17:32:59.734Z,11.09
2022-11-07T17:37:01.449Z,11.14
2022-11-07T17:41:17.124Z,11.12
2022-11-07T17:45:18.802Z,11.09
2022-11-07T17:49:21.847Z,11.08
2022-11-07T17:53:23.196Z,11.16
2022-11-07T17:57:24.603Z,11.16
2022-11-07T18:01:29.167Z,11.14
2022-11-07T18:05:34.525Z,11.23
2022-11-07T18:09:36.346Z,11.19
2022-11-07T18:13:38.454Z,11.17
2022-11-07T18:17:40.947Z,11.13
2022-11-07T18:21:42.337Z,10.85
2022-11-07T18:25:43.730Z,10.89
2022-11-07T18:29:45.132Z,10.76
2022-11-07T18:33:47.222Z,10.66
2022-11-07T18:37:48.758Z,10.49
2022-11-07T18:41:51.993Z,10.49
2022-11-07T18:45:54.460Z,10.59
2022-11-07T18:49:57.440Z,10.42
2022-11-07T18:54:00.859Z,10.38
2022-11-07T18:58:02.311Z,10.43
2022-11-07T19:02:03.873Z,10.43
2022-11-07T19:06:11.316Z,10.46
2022-11-07T19:10:13.890Z,10.53
2022-11-07T19:14:15.331Z,10.50
2022-11-07T19:18:17.627Z,11.01
2022-11-07T19:22:19.335Z,10.87
2022-11-07T19:26:20.773Z,11.01
2022-11-07T19:30:22.333Z,11.01
2022-11-07T19:34:25.503Z,11.00
2022-11-07T19:38:27.793Z,10.78
2022-11-07T19:42:29.186Z,10.60
2022-11-07T19:46:30.588Z,10.52
2022-11-07T19:50:31.972Z,10.44
2022-11-07T19:54:33.554Z,10.34
2022-11-07T19:58:36.325Z,10.34
2022-11-07T20:02:44.088Z,10.30
2022-11-07T20:06:46.443Z,10.25
2022-11-07T20:10:48.300Z,10.28
2022-11-07T20:14:49.762Z,10.18
2022-11-07T20:18:51.299Z,10.32
2022-11-07T20:22:52.668Z,10.34
2022-11-07T20:26:57.372Z,10.35
2022-11-07T20:30:58.963Z,10.34
2022-11-07T20:35:00.740Z,10.32
2022-11-07T20:39:02.458Z,10.37
2022-11-07T20:43:07.888Z,10.36
2022-11-07T20:47:11.010Z,10.29
2022-11-07T20:51:18.525Z,10.38
2022-11-07T20:55:20.551Z,10.31
2022-11-07T20:59:22.478Z,10.31
2022-11-07T21:03:24.106Z,10.30
2022-11-07T21:07:25.468Z,10.31
2022-11-07T21:11:28.261Z,10.21
2022-11-07T21:15:29.683Z,10.21
2022-11-07T21:19:31.089Z,10.23
2022-11-07T21:23:32.577Z,10.09
2022-11-07T21:27:36.223Z,10.13
2022-11-07T21:31:40.059Z,10.05
2022-11-07T21:35:42.974Z,9.94
2022-11-07T21:39:44.406Z,9.95
2022-11-07T21:43:46.230Z,9.94
2022-11-07T21:47:48.042Z,9.88
2022-11-07T21:51:51.305Z,9.97
2022-11-07T21:55:53.212Z,9.92
2022-11-07T21:59:54.624Z,9.97
2022-11-07T22:04:12.346Z,9.94
2022-11-07T22:08:16.358Z,9.96
2022-11-07T22:12:21.111Z,9.87
2022-11-07T22:16:23.130Z,9.96
2022-11-07T22:20:24.582Z,9.96
2022-11-07T22:24:27.222Z,9.97
2022-11-07T22:28:28.723Z,9.92
2022-11-07T22:32:30.139Z,9.91
2022-11-07T22:36:31.568Z,9.93
2022-11-07T22:40:32.993Z,9.91
2022-11-07T22:44:34.463Z,9.96
2022-11-07T22:48:36.026Z,9.90
2022-11-07T22:52:37.461Z,9.73
2022-11-07T22:56:38.935Z,9.80
2022-11-07T23:00:40.355Z,9.79
2022-11-07T23:04:41.745Z,9.77
2022-11-07T23:08:43.205Z,9.75
2022-11-07T23:12:44.767Z,9.77
2022-11-07T23:16:52.067Z,9.72
2022-11-07T23:21:10.345Z,9.88
2022-11-07T23:25:11.734Z,9.80
2022-11-07T23:29:15.689Z,9.82
2022-11-07T23:33:17.329Z,9.81
2022-11-07T23:37:18.805Z,9.87
